createdAt,value
2019-01-02T00:03:42.936Z,6.77
2019-01-02T00:06:22.961Z,9.77
2019-01-02T00:09:04.453Z,7.70
2019-01-02T00:11:42.896Z,9.37
2019-01-02T00:14:23.944Z,8.27
2019-01-02T00:17:04.648Z,3.83
2019-01-02T00:19:44.576Z,5.27
2019-01-02T00:22:24.492Z,2.40
2019-01-02T00:25:04.525Z,8.50
2019-01-02T00:27:44.740Z,2.63
2019-01-02T00:30:24.813Z,1.83
2019-01-02T00:33:05.082Z,2.17
2019-01-02T00:35:45.120Z,3.03
2019-01-02T00:38:25.552Z,4.40
2019-01-02T00:41:07.499Z,5.03
2019-01-02T00:43:47.513Z,5.83
2019-01-02T00:46:28.473Z,2.30
2019-01-02T00:49:08.994Z,3.73
2019-01-02T00:51:48.932Z,2.33
2019-01-02T00:54:30.247Z,9.40
2019-01-02T00:57:11.290Z,4.90
2019-01-02T00:59:51.096Z,6.60
2019-01-02T01:02:31.144Z,6.50
2019-01-02T01:05:11.438Z,7.60
2019-01-02T01:07:52.011Z,9.00
2019-01-02T01:10:32.609Z,4.87
2019-01-02T01:13:13.700Z,4.07
2019-01-02T01:15:53.977Z,3.43
2019-01-02T01:18:34.022Z,6.27
2019-01-02T01:21:15.342Z,9.10
2019-01-02T01:23:55.518Z,7.60
2019-01-02T01:26:35.383Z,8.60
2019-01-02T01:29:15.566Z,9.17
2019-01-02T01:31:56.456Z,13.23
2019-01-02T01:34:36.798Z,6.73
2019-01-02T01:37:16.784Z,4.83
2019-01-02T01:39:56.747Z,5.40
2019-01-02T01:42:37.122Z,8.23
2019-01-02T01:45:17.483Z,5.30
2019-01-02T01:47:57.350Z,5.03
2019-01-02T01:50:37.792Z,8.80
2019-01-02T01:53:18.854Z,5.23
2019-01-02T01:55:58.608Z,5.50
2019-01-02T01:58:39.145Z,9.70
2019-01-02T02:01:19.227Z,9.35
2019-01-02T02:03:59.155Z,18.13
2019-01-02T02:06:39.236Z,3.40
2019-01-02T02:09:19.547Z,15.35
2019-01-02T02:12:00.586Z,10.80
2019-01-02T02:14:40.413Z,9.80
2019-01-02T02:17:20.816Z,5.47
2019-01-02T02:20:01.069Z,10.48
2019-01-02T02:22:42.784Z,10.88
2019-01-02T02:25:22.749Z,4.60
2019-01-02T02:28:03.338Z,5.20
2019-01-02T02:30:44.227Z,7.28
2019-01-02T02:33:25.226Z,9.13
2019-01-02T02:36:05.450Z,9.27
2019-01-02T02:38:45.674Z,13.50
2019-01-02T02:41:25.820Z,9.57
2019-01-02T02:44:07.223Z,4.77
2019-01-02T02:46:48.060Z,12.57
2019-01-02T02:49:28.131Z,5.45
2019-01-02T02:52:08.464Z,11.55
2019-01-02T02:54:48.427Z,4.35
2019-01-02T02:57:29.194Z,6.17
2019-01-02T03:00:09.468Z,14.30
2019-01-02T03:02:49.574Z,7.83
2019-01-02T03:05:29.823Z,7.97
2019-01-02T03:08:10.168Z,6.12
2019-01-02T03:10:51.252Z,12.58
2019-01-02T03:13:30.084Z,6.22
2019-01-02T03:16:10.815Z,10.75
2019-01-02T03:18:51.700Z,9.28
2019-01-02T03:21:32.261Z,3.83
2019-01-02T03:24:13.026Z,7.12
2019-01-02T03:26:52.716Z,7.85
2019-01-02T03:29:33.230Z,11.38
2019-01-02T03:32:13.560Z,8.28
2019-01-02T03:34:54.569Z,7.97
2019-01-02T03:37:34.560Z,11.95
2019-01-02T03:40:14.769Z,8.10
2019-01-02T03:42:55.331Z,10.07
2019-01-02T03:45:35.497Z,14.87
2019-01-02T03:48:16.108Z,15.53
2019-01-02T03:50:56.613Z,10.88
2019-01-02T03:53:36.831Z,9.83
2019-01-02T03:56:17.015Z,10.43
2019-01-02T03:58:57.178Z,11.95
2019-01-02T04:01:37.316Z,11.70
2019-01-02T04:04:17.398Z,8.43
2019-01-02T04:06:57.607Z,6.55
2019-01-02T04:09:37.812Z,13.98
2019-01-02T04:12:17.799Z,11.00
2019-01-02T04:14:58.116Z,8.93
2019-01-02T04:17:38.243Z,10.80
2019-01-02T04:20:17.897Z,4.62
2019-01-02T04:22:58.272Z,5.80
2019-01-02T04:25:38.209Z,12.35
2019-01-02T04:28:18.360Z,10.10
2019-01-02T04:30:58.338Z,6.08
2019-01-02T04:33:38.201Z,8.25
2019-01-02T04:36:18.718Z,12.50
2019-01-02T04:38:58.513Z,8.40
2019-01-02T04:41:38.428Z,8.63
2019-01-02T04:44:18.465Z,11.40
2019-01-02T04:46:58.841Z,18.50
2019-01-02T04:49:38.651Z,19.30
2019-01-02T04:52:18.716Z,16.57
2019-01-02T04:54:59.334Z,9.33
2019-01-02T04:57:39.501Z,11.85
2019-01-02T05:00:20.477Z,12.50
2019-01-02T05:03:00.378Z,9.93
2019-01-02T05:05:40.923Z,13.43
2019-01-02T05:08:20.699Z,13.20
2019-01-02T05:11:01.037Z,12.58
2019-01-02T05:13:42.016Z,24.43
2019-01-02T05:16:22.005Z,12.15
2019-01-02T05:19:01.972Z,13.93
2019-01-02T05:21:41.908Z,11.20
2019-01-02T05:24:22.103Z,13.88
2019-01-02T05:27:02.207Z,9.88
2019-01-02T05:29:42.653Z,7.12
2019-01-02T05:32:22.472Z,7.45
2019-01-02T05:35:02.517Z,8.83
2019-01-02T05:37:42.464Z,11.28
2019-01-02T05:40:22.470Z,9.15
2019-01-02T05:43:02.499Z,13.10
2019-01-02T05:45:43.166Z,10.08
2019-01-02T05:48:10.545Z,8.40
2019-01-02T05:50:57.674Z,9.75
2019-01-02T05:53:35.694Z,19.05
2019-01-02T05:56:22.548Z,9.63
2019-01-02T05:59:02.194Z,9.63
2019-01-02T06:01:42.424Z,19.40
2019-01-02T06:04:22.808Z,18.32
2019-01-02T06:07:02.698Z,25.45
2019-01-02T06:09:42.626Z,20.72
2019-01-02T06:12:22.598Z,22.93
2019-01-02T06:15:02.654Z,14.75
2019-01-02T06:17:42.944Z,15.28
2019-01-02T06:20:22.744Z,19.02
2019-01-02T06:23:02.964Z,13.95
2019-01-02T06:25:42.948Z,8.53
2019-01-02T06:28:23.117Z,16.90
2019-01-02T06:31:03.320Z,9.85
2019-01-02T06:33:43.672Z,12.20
2019-01-02T06:36:23.696Z,18.75
2019-01-02T06:39:04.126Z,8.50
2019-01-02T06:41:43.803Z,9.13
2019-01-02T06:44:24.070Z,14.35
2019-01-02T06:47:04.273Z,15.72
2019-01-02T06:49:44.236Z,12.23
2019-01-02T06:52:25.563Z,12.28
2019-01-02T06:55:05.790Z,12.28
2019-01-02T06:57:45.998Z,12.05
2019-01-02T07:00:26.078Z,22.32
2019-01-02T07:03:06.153Z,15.75
2019-01-02T07:05:46.584Z,16.48
2019-01-02T07:08:26.483Z,16.52
2019-01-02T07:11:06.672Z,23.40
2019-01-02T07:13:46.858Z,20.95
2019-01-02T07:16:26.556Z,18.82
2019-01-02T07:19:06.738Z,18.48
2019-01-02T07:21:46.989Z,15.53
2019-01-02T07:24:27.172Z,14.73
2019-01-02T07:27:07.126Z,21.90
2019-01-02T07:29:47.248Z,15.60
2019-01-02T07:32:27.349Z,20.08
2019-01-02T07:35:07.440Z,29.52
2019-01-02T07:37:47.823Z,25.88
2019-01-02T07:40:27.777Z,18.55
2019-01-02T07:43:08.086Z,19.00
2019-01-02T07:45:48.612Z,14.98
2019-01-02T07:48:29.097Z,21.68
2019-01-02T07:51:09.377Z,22.37
2019-01-02T07:53:49.454Z,12.18
2019-01-02T07:56:29.584Z,16.95
2019-01-02T07:59:09.867Z,22.32
2019-01-02T08:01:49.699Z,19.50
2019-01-02T08:04:29.660Z,19.73
2019-01-02T08:07:09.747Z,17.12
2019-01-02T08:09:49.885Z,19.70
2019-01-02T08:12:29.997Z,19.10
2019-01-02T08:15:10.085Z,19.50
2019-01-02T08:17:50.216Z,25.10
2019-01-02T08:20:30.065Z,18.60
2019-01-02T08:23:10.332Z,26.50
2019-01-02T08:25:50.468Z,24.30
2019-01-02T08:28:30.557Z,14.55
2019-01-02T08:31:10.786Z,16.52
2019-01-02T08:33:51.937Z,17.10
2019-01-02T08:36:34.847Z,18.42
2019-01-02T08:39:15.424Z,26.33
2019-01-02T08:41:55.290Z,18.35
2019-01-02T08:44:35.897Z,23.50
2019-01-02T08:47:15.484Z,25.52
2019-01-02T08:49:55.494Z,23.55
2019-01-02T08:52:36.127Z,10.45
2019-01-02T08:55:16.072Z,11.60
2019-01-02T08:57:56.263Z,19.82
2019-01-02T09:00:36.464Z,22.52
2019-01-02T09:03:16.574Z,19.90
2019-01-02T09:05:56.979Z,20.15
2019-01-02T09:08:36.545Z,13.25
2019-01-02T09:11:16.769Z,19.30
2019-01-02T09:13:57.209Z,16.50
2019-01-02T09:16:37.344Z,16.15
2019-01-02T09:19:17.682Z,27.95
2019-01-02T09:21:57.504Z,21.40
2019-01-02T09:24:37.712Z,19.62
2019-01-02T09:27:17.769Z,19.25
2019-01-02T09:29:57.511Z,18.62
2019-01-02T09:32:37.585Z,24.00
2019-01-02T09:35:17.528Z,38.75
2019-01-02T09:37:57.881Z,21.68
2019-01-02T09:40:37.952Z,20.27
2019-01-02T09:43:17.514Z,20.32
2019-01-02T09:45:57.552Z,22.05
2019-01-02T09:48:38.551Z,25.85
2019-01-02T09:51:19.079Z,19.62
2019-01-02T09:53:59.149Z,31.97
2019-01-02T09:56:39.028Z,16.02
2019-01-02T09:59:19.277Z,16.02
2019-01-02T10:01:59.164Z,18.20
2019-01-02T10:04:39.642Z,24.40
2019-01-02T10:07:19.779Z,26.33
2019-01-02T10:10:00.237Z,22.82
2019-01-02T10:12:40.035Z,25.70
2019-01-02T10:15:21.346Z,23.03
2019-01-02T10:18:01.844Z,19.97
2019-01-02T10:20:43.944Z,20.92
2019-01-02T10:23:23.728Z,29.37
2019-01-02T10:26:03.802Z,24.12
2019-01-02T10:28:44.143Z,17.13
2019-01-02T10:31:24.309Z,17.50
2019-01-02T10:34:05.128Z,17.30
2019-01-02T10:36:45.292Z,22.83
2019-01-02T10:39:25.516Z,20.47
2019-01-02T10:42:06.078Z,20.33
2019-01-02T10:44:46.165Z,18.77
2019-01-02T10:47:26.116Z,12.87
2019-01-02T10:50:06.105Z,20.47
2019-01-02T10:52:46.903Z,22.20
2019-01-02T10:55:26.850Z,20.77
2019-01-02T10:58:06.767Z,25.50
2019-01-02T11:00:47.121Z,20.43
2019-01-02T11:03:27.131Z,21.90
2019-01-02T11:06:07.420Z,16.47
2019-01-02T11:08:47.152Z,24.10
2019-01-02T11:11:27.376Z,29.12
2019-01-02T11:14:07.437Z,19.92
2019-01-02T11:16:47.962Z,21.95
2019-01-02T11:19:28.020Z,26.37
2019-01-02T11:22:07.952Z,16.23
2019-01-02T11:24:48.125Z,23.52
2019-01-02T11:27:28.296Z,19.23
2019-01-02T11:30:08.364Z,24.13
2019-01-02T11:32:48.832Z,17.73
2019-01-02T11:35:28.779Z,22.27
2019-01-02T11:38:08.768Z,19.75
2019-01-02T11:40:48.753Z,17.87
2019-01-02T11:43:29.154Z,26.68
2019-01-02T11:46:09.030Z,20.17
2019-01-02T11:48:49.453Z,16.35
2019-01-02T11:51:29.443Z,17.25
2019-01-02T11:54:09.420Z,8.65
2019-01-02T11:56:50.168Z,17.90
2019-01-02T11:59:30.078Z,19.35
2019-01-02T12:02:10.132Z,21.05
2019-01-02T12:04:50.201Z,19.52
2019-01-02T12:07:30.409Z,18.00
2019-01-02T12:10:11.017Z,18.73
2019-01-02T12:12:50.655Z,14.53
2019-01-02T12:15:31.653Z,15.55
2019-01-02T12:18:12.066Z,20.00
2019-01-02T12:20:52.092Z,19.25
2019-01-02T12:23:32.194Z,17.83
2019-01-02T12:26:12.060Z,11.12
2019-01-02T12:28:52.037Z,28.95
2019-01-02T12:31:32.120Z,17.33
2019-01-02T12:34:12.550Z,19.70
2019-01-02T12:36:53.086Z,16.83
2019-01-02T12:39:33.158Z,17.07
2019-01-02T12:42:13.612Z,22.20
2019-01-02T12:44:54.042Z,22.73
2019-01-02T12:47:34.407Z,12.03
2019-01-02T12:50:14.296Z,23.27
2019-01-02T12:52:55.350Z,15.83
2019-01-02T12:55:35.406Z,18.07
2019-01-02T12:58:15.225Z,14.68
2019-01-02T13:00:55.717Z,27.00
2019-01-02T13:03:35.334Z,22.23
2019-01-02T13:06:15.743Z,13.78
2019-01-02T13:08:55.705Z,20.62
2019-01-02T13:11:35.824Z,12.13
2019-01-02T13:14:15.842Z,18.23
2019-01-02T13:16:56.010Z,7.03
2019-01-02T13:19:36.175Z,26.73
2019-01-02T13:22:16.480Z,15.20
2019-01-02T13:24:56.257Z,19.92
2019-01-02T13:27:36.408Z,28.27
2019-01-02T13:30:16.920Z,16.97
2019-01-02T13:32:57.016Z,22.52
2019-01-02T13:35:37.168Z,23.45
2019-01-02T13:38:17.254Z,18.20
2019-01-02T13:40:57.375Z,19.70
2019-01-02T13:43:37.597Z,16.00
2019-01-02T13:46:17.739Z,11.48
2019-01-02T13:48:59.764Z,23.37
2019-01-02T13:51:39.913Z,21.67
2019-01-02T13:54:19.931Z,17.00
2019-01-02T13:56:59.824Z,22.10
2019-01-02T13:59:40.135Z,28.25
2019-01-02T14:02:21.438Z,24.60
2019-01-02T14:05:01.306Z,18.92
2019-01-02T14:07:41.325Z,31.83
2019-01-02T14:10:21.390Z,18.17
2019-01-02T14:13:01.870Z,25.27
2019-01-02T14:15:42.624Z,19.93
2019-01-02T14:18:22.810Z,13.83
2019-01-02T14:21:02.742Z,16.27
2019-01-02T14:23:42.880Z,18.17
2019-01-02T14:26:22.756Z,13.75
2019-01-02T14:29:03.128Z,21.55
2019-01-02T14:31:43.203Z,30.92
2019-01-02T14:34:23.421Z,12.20
2019-01-02T14:37:04.559Z,17.05
2019-01-02T14:39:44.629Z,22.25
2019-01-02T14:42:24.883Z,22.77
2019-01-02T14:45:05.392Z,20.25
2019-01-02T14:47:45.468Z,17.03
2019-01-02T14:50:25.416Z,17.00
2019-01-02T14:53:05.505Z,12.80
2019-01-02T14:55:45.864Z,24.87
2019-01-02T14:58:25.849Z,14.13
2019-01-02T15:01:06.559Z,20.30
2019-01-02T15:03:47.204Z,14.78
2019-01-02T15:06:26.997Z,27.60
2019-01-02T15:09:06.796Z,20.37
2019-01-02T15:11:47.196Z,11.50
2019-01-02T15:14:27.093Z,21.37
2019-01-02T15:17:07.182Z,13.88
2019-01-02T15:19:47.128Z,13.07
2019-01-02T15:22:27.295Z,12.75
2019-01-02T15:25:07.551Z,19.52
2019-01-02T15:27:48.464Z,19.40
2019-01-02T15:30:28.725Z,18.48
2019-01-02T15:33:08.566Z,18.50
2019-01-02T15:35:49.006Z,27.67
2019-01-02T15:38:28.774Z,23.00
2019-01-02T15:41:08.906Z,12.90
2019-01-02T15:43:48.983Z,23.30
2019-01-02T15:46:29.142Z,23.77
2019-01-02T15:49:09.220Z,20.68
2019-01-02T15:51:49.607Z,18.92
2019-01-02T15:54:29.596Z,14.47
2019-01-02T15:57:09.700Z,19.17
2019-01-02T15:59:50.012Z,17.50
2019-01-02T16:02:29.754Z,19.70
2019-01-02T16:05:09.858Z,20.10
2019-01-02T16:07:49.681Z,13.55
2019-01-02T16:10:29.864Z,26.82
2019-01-02T16:13:09.671Z,19.67
2019-01-02T16:15:49.893Z,11.50
2019-01-02T16:18:29.937Z,12.83
2019-01-02T16:21:10.124Z,8.75
2019-01-02T16:23:50.445Z,11.48
2019-01-02T16:26:30.359Z,9.28
2019-01-02T16:29:10.453Z,12.85
2019-01-02T16:31:51.744Z,6.78
2019-01-02T16:34:31.532Z,14.03
2019-01-02T16:37:11.422Z,9.60
2019-01-02T16:39:51.327Z,10.40
2019-01-02T16:42:31.504Z,11.40
2019-01-02T16:45:11.556Z,7.58
2019-01-02T16:47:51.747Z,8.73
2019-01-02T16:50:32.334Z,5.10
2019-01-02T16:53:12.355Z,6.80
2019-01-02T16:55:52.353Z,11.68
2019-01-02T16:58:32.455Z,10.05
2019-01-02T17:01:12.946Z,8.95
2019-01-02T17:03:53.248Z,7.72
2019-01-02T17:06:33.105Z,7.47
2019-01-02T17:09:13.609Z,9.17
2019-01-02T17:11:53.264Z,9.50
2019-01-02T17:14:33.447Z,11.85
2019-01-02T17:17:13.260Z,8.73
2019-01-02T17:19:53.474Z,12.60
2019-01-02T17:22:33.364Z,8.53
2019-01-02T17:25:13.465Z,13.98
2019-01-02T17:27:53.483Z,7.42
2019-01-02T17:30:34.017Z,10.32
2019-01-02T17:33:13.834Z,16.15
2019-01-02T17:35:53.674Z,8.10
2019-01-02T17:38:33.651Z,13.98
2019-01-02T17:41:14.098Z,18.30
2019-01-02T17:43:54.965Z,9.45
2019-01-02T17:46:34.936Z,16.23
2019-01-02T17:49:15.011Z,18.20
2019-01-02T17:51:54.866Z,15.87
2019-01-02T17:54:34.739Z,15.00
2019-01-02T17:57:14.608Z,9.50
2019-01-02T17:59:54.523Z,17.57
2019-01-02T18:02:34.836Z,15.15
2019-01-02T18:05:14.535Z,17.90
2019-01-02T18:07:54.631Z,13.55
2019-01-02T18:10:34.900Z,18.65
2019-01-02T18:13:14.977Z,14.35
2019-01-02T18:15:54.946Z,14.60
2019-01-02T18:18:35.175Z,13.60
2019-01-02T18:21:15.355Z,17.35
2019-01-02T18:23:55.432Z,13.03
2019-01-02T18:26:35.588Z,14.93
2019-01-02T18:29:15.560Z,10.45
2019-01-02T18:31:55.910Z,12.85
2019-01-02T18:34:36.202Z,12.85
2019-01-02T18:37:16.400Z,13.05
2019-01-02T18:39:56.785Z,11.28
2019-01-02T18:42:36.662Z,16.52
2019-01-02T18:45:16.689Z,7.12
2019-01-02T18:47:56.791Z,10.15
2019-01-02T18:50:36.630Z,12.85
2019-01-02T18:53:16.676Z,14.58
2019-01-02T18:55:57.084Z,14.98
2019-01-02T18:58:37.786Z,14.05
2019-01-02T19:01:17.804Z,15.83
2019-01-02T19:03:57.781Z,17.80
2019-01-02T19:06:37.744Z,29.00
2019-01-02T19:09:18.105Z,26.35
2019-01-02T19:11:58.529Z,22.37
2019-01-02T19:14:39.462Z,17.10
2019-01-02T19:17:23.493Z,15.65
2019-01-02T19:20:03.647Z,16.07
2019-01-02T19:22:43.810Z,14.65
2019-01-02T19:25:24.278Z,11.65
2019-01-02T19:28:04.468Z,15.53
2019-01-02T19:30:45.192Z,20.05
2019-01-02T19:33:24.982Z,15.88
2019-01-02T19:36:05.020Z,14.65
2019-01-02T19:38:45.562Z,16.05
2019-01-02T19:41:25.087Z,16.32
2019-01-02T19:44:05.161Z,19.12
2019-01-02T19:46:45.441Z,27.93
2019-01-02T19:49:25.600Z,21.52
2019-01-02T19:52:05.655Z,22.82
2019-01-02T19:54:45.560Z,21.15
2019-01-02T19:57:25.660Z,23.95
2019-01-02T20:00:05.853Z,37.88
2019-01-02T20:02:46.064Z,26.62
2019-01-02T20:05:26.466Z,24.50
2019-01-02T20:08:06.692Z,24.18
2019-01-02T20:10:46.824Z,22.00
2019-01-02T20:13:26.703Z,18.15
2019-01-02T20:16:07.220Z,20.17
2019-01-02T20:18:47.496Z,24.15
2019-01-02T20:21:27.548Z,18.42
2019-01-02T20:24:07.664Z,17.57
2019-01-02T20:26:35.253Z,23.22
2019-01-02T20:29:22.081Z,18.85
2019-01-02T20:32:04.375Z,12.82
2019-01-02T20:34:44.562Z,15.00
2019-01-02T20:37:24.516Z,14.47
2019-01-02T20:40:04.822Z,19.80
2019-01-02T20:42:44.784Z,17.60
2019-01-02T20:45:26.193Z,21.52
2019-01-02T20:48:06.119Z,16.52
2019-01-02T20:50:46.248Z,22.10
2019-01-02T20:53:26.415Z,17.80
2019-01-02T20:56:06.609Z,20.85
2019-01-02T20:58:46.373Z,17.17
2019-01-02T21:01:26.473Z,22.65
2019-01-02T21:04:06.460Z,29.63
2019-01-02T21:06:46.912Z,21.02
2019-01-02T21:09:26.667Z,19.67
2019-01-02T21:12:06.873Z,25.35
2019-01-02T21:14:47.017Z,21.23
2019-01-02T21:17:27.377Z,16.57
2019-01-02T21:20:07.363Z,24.82
2019-01-02T21:22:47.299Z,39.42
2019-01-02T21:25:27.146Z,32.67
2019-01-02T21:28:07.290Z,27.13
2019-01-02T21:30:47.328Z,29.02
2019-01-02T21:33:27.459Z,24.05
2019-01-02T21:36:07.596Z,40.40
2019-01-02T21:38:47.861Z,44.23
2019-01-02T21:41:28.108Z,38.25
2019-01-02T21:44:08.338Z,33.98
2019-01-02T21:46:48.166Z,33.25
2019-01-02T21:49:28.114Z,30.92
2019-01-02T21:52:08.282Z,20.50
2019-01-02T21:54:48.474Z,21.25
2019-01-02T21:57:28.098Z,16.00
2019-01-02T22:00:08.672Z,12.03
2019-01-02T22:02:48.683Z,22.93
2019-01-02T22:05:28.409Z,17.48
2019-01-02T22:08:08.696Z,15.75
2019-01-02T22:10:48.656Z,15.63
2019-01-02T22:13:28.695Z,19.92
2019-01-02T22:16:08.624Z,12.98
2019-01-02T22:18:48.762Z,34.65
2019-01-02T22:21:28.712Z,30.00
2019-01-02T22:24:08.811Z,27.60
2019-01-02T22:26:49.256Z,27.48
2019-01-02T22:29:29.167Z,25.55
2019-01-02T22:32:09.426Z,36.60
2019-01-02T22:34:49.512Z,30.70
2019-01-02T22:37:29.778Z,39.35
2019-01-02T22:40:09.993Z,37.15
2019-01-02T22:42:50.144Z,42.15
2019-01-02T22:45:30.548Z,30.20
2019-01-02T22:48:10.390Z,30.27
2019-01-02T22:50:50.508Z,28.23
2019-01-02T22:53:30.936Z,21.45
2019-01-02T22:56:11.182Z,21.02
2019-01-02T22:58:51.128Z,18.77
2019-01-02T23:01:35.731Z,20.85
2019-01-02T23:04:35.988Z,17.77
2019-01-02T23:07:25.352Z,24.32
2019-01-02T23:10:17.033Z,24.77
2019-01-02T23:13:17.101Z,22.02
2019-01-02T23:16:16.218Z,17.92
2019-01-02T23:19:22.684Z,20.43
2019-01-02T23:22:22.701Z,20.80
2019-01-02T23:25:22.659Z,20.52
2019-01-02T23:28:22.616Z,15.83
2019-01-02T23:31:21.920Z,18.32
2019-01-02T23:34:16.968Z,28.32
2019-01-02T23:37:10.606Z,24.67
2019-01-02T23:40:10.863Z,19.23
2019-01-02T23:43:10.413Z,33.13
2019-01-02T23:46:10.245Z,24.55
2019-01-02T23:49:09.602Z,25.97
2019-01-02T23:52:04.721Z,24.72
2019-01-02T23:55:04.140Z,16.37
2019-01-02T23:58:03.326Z,18.67
